createdAt,value
2023-04-19T00:00:02.468Z,2.40
2023-04-19T00:02:34.300Z,1.80
2023-04-19T00:05:03.397Z,2.20
2023-04-19T00:07:32.736Z,2.30
2023-04-19T00:10:01.352Z,2.50
2023-04-19T00:12:30.663Z,2.03
2023-04-19T00:15:00.335Z,2.17
2023-04-19T00:20:00.034Z,2.00
2023-04-19T00:22:28.559Z,1.98
2023-04-19T00:24:56.845Z,1.83
2023-04-19T00:27:25.594Z,1.42
2023-04-19T00:29:55.062Z,1.90
2023-04-19T00:32:23.781Z,2.17
2023-04-19T00:34:53.601Z,1.87
2023-04-19T00:37:23.709Z,2.50
2023-04-19T00:39:52.064Z,1.88
2023-04-19T00:42:21.228Z,1.98
2023-04-19T00:44:49.828Z,1.40
2023-04-19T00:47:18.398Z,1.70
2023-04-19T00:49:49.597Z,1.85
2023-04-19T00:52:20.029Z,1.73
2023-04-19T00:54:48.938Z,1.77
2023-04-19T00:57:17.768Z,1.63
2023-04-19T00:59:46.336Z,1.65
2023-04-19T01:02:14.829Z,1.92
2023-04-19T01:04:43.858Z,2.00
2023-04-19T01:07:12.113Z,1.37
2023-04-19T01:09:46.892Z,1.63
2023-04-19T01:12:17.959Z,1.65
2023-04-19T01:14:46.225Z,1.75
2023-04-19T01:17:14.606Z,1.40
2023-04-19T01:19:43.847Z,1.27
2023-04-19T01:22:19.438Z,1.52
2023-04-19T01:24:48.284Z,1.88
2023-04-19T01:27:19.885Z,1.90
2023-04-19T01:29:49.060Z,1.92
2023-04-19T01:32:19.349Z,1.85
2023-04-19T01:34:49.048Z,1.35
2023-04-19T01:39:47.166Z,1.63
2023-04-19T01:42:16.435Z,1.70
2023-04-19T01:44:44.787Z,1.48
2023-04-19T01:47:13.408Z,2.05
2023-04-19T01:49:42.437Z,1.35
2023-04-19T01:52:10.713Z,1.97
2023-04-19T01:54:40.325Z,1.70
2023-04-19T01:57:08.717Z,1.95
2023-04-19T01:59:37.319Z,1.35
2023-04-19T02:02:08.421Z,1.83
2023-04-19T02:04:37.459Z,1.98
2023-04-19T02:07:08.093Z,1.40
2023-04-19T02:09:37.308Z,2.00
2023-04-19T02:12:07.451Z,2.58
2023-04-19T02:14:39.230Z,2.03
2023-04-19T02:17:07.483Z,1.70
2023-04-19T02:19:36.231Z,2.13
2023-04-19T02:22:04.648Z,1.27
2023-04-19T02:24:32.775Z,2.13
2023-04-19T02:27:02.905Z,2.33
2023-04-19T02:29:35.386Z,2.10
2023-04-19T02:34:36.174Z,1.50
2023-04-19T02:37:04.528Z,1.90
2023-04-19T02:39:35.515Z,1.70
2023-04-19T02:42:07.028Z,2.05
2023-04-19T02:44:37.067Z,1.95
2023-04-19T02:47:06.646Z,2.08
2023-04-19T02:49:37.924Z,2.15
2023-04-19T02:52:06.990Z,1.42
2023-04-19T02:54:35.714Z,2.13
2023-04-19T02:57:04.246Z,1.60
2023-04-19T02:59:33.692Z,2.17
2023-04-19T03:02:06.867Z,1.77
2023-04-19T03:04:36.800Z,2.10
2023-04-19T03:07:06.095Z,2.55
2023-04-19T03:09:34.974Z,2.25
2023-04-19T03:12:03.148Z,1.63
2023-04-19T03:14:31.369Z,1.75
2023-04-19T03:17:00.945Z,1.67
2023-04-19T03:19:30.821Z,2.15
2023-04-19T03:21:59.261Z,1.70
2023-04-19T03:24:32.568Z,2.03
2023-04-19T03:27:11.007Z,2.00
2023-04-19T03:29:41.118Z,1.85
2023-04-19T03:32:12.849Z,1.77
2023-04-19T03:34:42.856Z,2.20
2023-04-19T03:37:13.216Z,2.03
2023-04-19T03:39:42.189Z,1.98
2023-04-19T03:42:15.374Z,2.78
2023-04-19T03:44:55.149Z,2.33
2023-04-19T03:47:25.205Z,1.80
2023-04-19T03:49:58.707Z,1.85
2023-04-19T03:52:29.395Z,2.17
2023-04-19T03:54:57.748Z,2.05
2023-04-19T03:57:43.761Z,1.70
2023-04-19T04:00:30.482Z,1.50
2023-04-19T04:03:01.912Z,1.95
2023-04-19T04:05:32.539Z,2.20
2023-04-19T04:08:02.556Z,2.08
2023-04-19T04:10:30.970Z,1.70
2023-04-19T04:12:59.358Z,1.83
2023-04-19T04:15:38.957Z,2.10
2023-04-19T04:18:09.293Z,1.85
2023-04-19T04:20:39.851Z,2.63
2023-04-19T04:23:11.537Z,2.45
2023-04-19T04:25:45.034Z,2.08
2023-04-19T04:28:15.834Z,2.22
2023-04-19T04:30:45.090Z,2.40
2023-04-19T04:33:14.634Z,1.83
2023-04-19T04:35:47.809Z,2.05
2023-04-19T04:38:25.006Z,2.35
2023-04-19T04:40:57.249Z,2.45
2023-04-19T04:43:29.904Z,2.08
2023-04-19T04:45:59.463Z,2.38
2023-04-19T04:48:32.312Z,2.25
2023-04-19T04:51:02.106Z,2.00
2023-04-19T04:53:31.790Z,2.20
2023-04-19T04:56:03.296Z,2.42
2023-04-19T04:58:32.562Z,2.13
2023-04-19T05:01:05.504Z,2.45
2023-04-19T05:03:39.082Z,2.45
2023-04-19T05:06:15.293Z,2.30
2023-04-19T05:08:43.848Z,2.60
2023-04-19T05:11:19.787Z,2.60
2023-04-19T05:13:49.075Z,2.08
2023-04-19T05:16:17.253Z,1.98
2023-04-19T05:18:48.485Z,2.80
2023-04-19T05:21:18.471Z,3.13
2023-04-19T05:23:47.237Z,2.88
2023-04-19T05:26:16.808Z,2.95
2023-04-19T05:28:46.759Z,2.50
2023-04-19T05:31:23.120Z,2.28
2023-04-19T05:34:07.421Z,2.60
2023-04-19T05:36:37.008Z,2.53
2023-04-19T05:39:06.737Z,2.30
2023-04-19T05:41:35.161Z,2.55
2023-04-19T05:44:03.891Z,2.63
2023-04-19T05:46:32.217Z,2.40
2023-04-19T05:49:01.525Z,3.03
2023-04-19T05:52:09.640Z,2.50
2023-04-19T05:54:45.492Z,2.70
2023-04-19T05:57:13.699Z,2.65
2023-04-19T05:59:42.200Z,2.47
2023-04-19T06:02:13.885Z,2.35
2023-04-19T06:04:43.782Z,2.30
2023-04-19T06:07:27.352Z,2.75
2023-04-19T06:09:59.884Z,3.05
2023-04-19T06:12:28.905Z,2.83
2023-04-19T06:14:57.371Z,2.85
2023-04-19T06:17:28.392Z,2.78
2023-04-19T06:19:56.993Z,2.30
2023-04-19T06:22:26.701Z,2.55
2023-04-19T06:27:23.220Z,2.55
2023-04-19T06:29:56.338Z,2.17
2023-04-19T06:32:25.850Z,2.25
2023-04-19T06:34:54.392Z,2.58
2023-04-19T06:37:23.365Z,2.90
2023-04-19T06:39:57.758Z,2.13
2023-04-19T06:42:27.347Z,2.85
2023-04-19T06:44:57.341Z,2.03
2023-04-19T06:47:27.061Z,2.45
2023-04-19T06:49:55.518Z,3.22
2023-04-19T06:52:23.892Z,2.72
2023-04-19T06:54:54.145Z,2.63
2023-04-19T06:57:22.913Z,3.03
2023-04-19T06:59:53.227Z,3.37
2023-04-19T07:02:22.530Z,3.30
2023-04-19T07:04:51.484Z,3.38
2023-04-19T07:07:20.414Z,3.37
2023-04-19T07:09:48.985Z,4.13
2023-04-19T07:12:18.607Z,2.78
2023-04-19T07:17:15.482Z,3.30
2023-04-19T07:19:48.598Z,2.95
2023-04-19T07:22:18.326Z,3.17
2023-04-19T07:24:46.823Z,2.97
2023-04-19T07:27:16.878Z,3.20
2023-04-19T07:29:47.532Z,2.63
2023-04-19T07:32:17.551Z,3.25
2023-04-19T07:34:46.246Z,3.10
2023-04-19T07:37:14.404Z,2.95
2023-04-19T07:39:44.418Z,2.72
2023-04-19T07:42:12.852Z,2.95
2023-04-19T07:44:42.649Z,3.00
2023-04-19T07:47:13.650Z,3.60
2023-04-19T07:49:41.930Z,3.17
2023-04-19T07:52:10.380Z,3.50
2023-04-19T07:54:40.339Z,3.97
2023-04-19T07:57:09.040Z,3.35
2023-04-19T07:59:40.715Z,2.78
2023-04-19T08:02:10.273Z,3.22
2023-04-19T08:04:41.320Z,2.95
2023-04-19T08:07:10.530Z,3.10
2023-04-19T08:09:38.850Z,3.08
2023-04-19T08:12:07.923Z,3.05
2023-04-19T08:19:42.895Z,2.83
2023-04-19T08:22:11.362Z,3.00
2023-04-19T08:24:39.525Z,3.28
2023-04-19T08:27:08.778Z,3.00
2023-04-19T08:29:37.230Z,3.05
2023-04-19T08:32:06.568Z,3.05
2023-04-19T08:34:36.370Z,2.22
2023-04-19T08:37:06.109Z,2.88
2023-04-19T08:42:13.349Z,3.10
2023-04-19T08:47:30.795Z,2.85
2023-04-19T08:52:44.481Z,2.63
2023-04-19T08:55:21.301Z,2.65
2023-04-19T08:57:49.843Z,3.35
2023-04-19T09:00:19.711Z,2.80
2023-04-19T09:02:49.861Z,2.97
2023-04-19T09:05:19.680Z,2.13
2023-04-19T09:07:50.361Z,2.28
2023-04-19T09:10:20.322Z,2.45
2023-04-19T09:13:02.186Z,2.65
2023-04-19T09:15:38.916Z,2.40
2023-04-19T09:18:10.939Z,2.45
2023-04-19T09:20:39.938Z,2.80
2023-04-19T09:23:12.543Z,2.33
2023-04-19T09:26:05.705Z,2.40
2023-04-19T09:28:30.630Z,2.67
2023-04-19T09:31:10.720Z,2.88
2023-04-19T09:33:45.320Z,2.40
2023-04-19T09:36:28.276Z,2.55
2023-04-19T09:38:58.713Z,3.15
2023-04-19T09:41:27.522Z,2.75
2023-04-19T09:44:44.527Z,3.13
2023-04-19T09:46:58.880Z,2.55
2023-04-19T09:49:41.525Z,2.03
2023-04-19T09:52:16.469Z,2.37
2023-04-19T09:54:46.886Z,2.93
2023-04-19T09:57:16.136Z,2.20
2023-04-19T09:59:44.568Z,2.00
2023-04-19T10:02:15.103Z,2.28
2023-04-19T10:10:05.033Z,2.00
2023-04-19T10:12:59.226Z,2.10
2023-04-19T10:15:49.523Z,2.38
2023-04-19T10:18:21.290Z,2.10
2023-04-19T10:20:54.602Z,3.13
2023-04-19T10:23:24.266Z,1.73
2023-04-19T10:28:29.535Z,1.60
2023-04-19T10:31:02.912Z,2.22
2023-04-19T10:33:33.392Z,1.63
2023-04-19T10:36:03.053Z,1.63
2023-04-19T10:38:39.384Z,1.38
2023-04-19T10:41:16.902Z,1.40
2023-04-19T10:43:47.921Z,1.25
2023-04-19T10:46:37.638Z,1.80
2023-04-19T10:49:07.761Z,1.25
2023-04-19T10:51:37.480Z,1.15
2023-04-19T10:54:06.830Z,1.40
2023-04-19T10:57:16.120Z,1.73
2023-04-19T10:59:48.338Z,1.48
2023-04-19T11:02:31.138Z,1.75
2023-04-19T11:05:05.697Z,1.15
2023-04-19T11:07:46.407Z,1.20
2023-04-19T11:10:16.748Z,1.33
2023-04-19T11:12:46.168Z,1.05
2023-04-19T11:15:16.152Z,0.93
2023-04-19T11:17:44.466Z,1.38
2023-04-19T11:20:14.866Z,1.15
2023-04-19T11:22:47.596Z,1.10
2023-04-19T11:25:19.047Z,1.20
2023-04-19T11:27:49.719Z,1.05
2023-04-19T11:30:22.504Z,1.30
2023-04-19T11:32:54.301Z,1.52
2023-04-19T11:35:24.824Z,1.40
2023-04-19T11:37:56.723Z,1.30
2023-04-19T11:40:27.113Z,1.77
2023-04-19T11:43:00.230Z,1.30
2023-04-19T11:45:35.439Z,1.00
2023-04-19T11:48:07.811Z,1.73
2023-04-19T11:50:39.769Z,1.30
2023-04-19T11:53:16.637Z,1.27
2023-04-19T11:55:48.279Z,1.33
2023-04-19T11:58:29.093Z,1.40
2023-04-19T12:01:04.838Z,1.52
2023-04-19T12:03:36.921Z,1.60
2023-04-19T12:06:09.087Z,1.60
2023-04-19T12:08:40.141Z,1.38
2023-04-19T12:11:08.480Z,1.40
2023-04-19T12:13:37.977Z,1.52
2023-04-19T12:16:08.914Z,1.45
2023-04-19T12:18:47.020Z,1.23
2023-04-19T12:21:27.308Z,1.30
2023-04-19T12:23:57.896Z,1.52
2023-04-19T12:26:28.168Z,1.10
2023-04-19T12:28:56.868Z,1.48
2023-04-19T12:31:27.063Z,1.35
2023-04-19T12:33:55.476Z,1.20
2023-04-19T12:36:23.760Z,1.30
2023-04-19T12:38:52.420Z,0.95
2023-04-19T12:41:23.808Z,1.33
2023-04-19T12:43:52.516Z,1.60
2023-04-19T12:46:20.727Z,1.35
2023-04-19T12:48:50.444Z,1.00
2023-04-19T12:53:50.312Z,1.35
2023-04-19T12:56:21.805Z,1.27
2023-04-19T12:58:51.414Z,1.48
2023-04-19T13:01:20.939Z,1.33
2023-04-19T13:03:51.324Z,1.30
2023-04-19T13:06:34.027Z,1.20
2023-04-19T13:09:11.393Z,1.17
2023-04-19T13:11:42.275Z,1.02
2023-04-19T13:14:13.555Z,0.75
2023-04-19T13:16:45.007Z,1.20
2023-04-19T13:19:23.767Z,0.85
2023-04-19T13:21:52.052Z,0.90
2023-04-19T13:24:20.179Z,1.08
2023-04-19T13:26:50.899Z,1.30
2023-04-19T13:29:19.827Z,1.13
2023-04-19T13:32:10.419Z,0.68
2023-04-19T13:34:43.145Z,1.02
2023-04-19T13:37:11.691Z,0.80
2023-04-19T13:39:39.813Z,0.57
2023-04-19T13:42:08.284Z,0.50
2023-04-19T13:44:36.677Z,0.60
2023-04-19T13:47:06.642Z,0.50
2023-04-19T13:49:38.591Z,1.15
2023-04-19T13:52:10.963Z,0.70
2023-04-19T13:54:40.045Z,0.90
2023-04-19T13:57:10.303Z,0.40
2023-04-19T13:59:38.969Z,0.60
2023-04-19T14:02:07.730Z,0.90
2023-04-19T14:04:36.599Z,0.40
2023-04-19T14:07:07.622Z,0.50
2023-04-19T14:09:38.250Z,0.57
2023-04-19T14:12:09.052Z,0.47
2023-04-19T14:14:37.532Z,0.70
2023-04-19T14:17:05.655Z,0.55
2023-04-19T14:19:34.035Z,0.60
2023-04-19T14:22:02.138Z,0.70
2023-04-19T14:24:30.300Z,0.60
2023-04-19T14:27:10.354Z,0.50
2023-04-19T14:29:39.746Z,0.60
2023-04-19T14:32:24.196Z,0.47
2023-04-19T14:34:55.298Z,0.57
2023-04-19T14:37:24.802Z,0.65
2023-04-19T14:39:54.249Z,0.50
2023-04-19T14:42:26.447Z,0.55
2023-04-19T14:44:56.130Z,0.90
2023-04-19T14:49:55.352Z,0.28
2023-04-19T14:52:24.452Z,0.75
2023-04-19T14:54:52.981Z,0.30
2023-04-19T14:57:21.533Z,0.40
2023-04-19T14:59:51.394Z,0.30
2023-04-19T15:02:19.745Z,0.70
2023-04-19T15:04:49.991Z,0.50
2023-04-19T15:07:18.551Z,0.28
2023-04-19T15:09:49.267Z,0.40
2023-04-19T15:12:17.977Z,1.02
2023-04-19T15:14:46.250Z,0.50
2023-04-19T15:17:17.339Z,0.57
2023-04-19T15:19:49.757Z,0.50
2023-04-19T15:22:21.543Z,0.50
2023-04-19T15:24:50.080Z,0.60
2023-04-19T15:27:18.456Z,0.68
2023-04-19T15:29:48.397Z,0.73
2023-04-19T15:32:22.399Z,0.28
2023-04-19T15:34:51.112Z,0.50
2023-04-19T15:37:19.834Z,0.60
2023-04-19T15:39:50.587Z,0.20
2023-04-19T15:42:18.892Z,0.40
2023-04-19T15:44:53.028Z,1.15
2023-04-19T15:47:25.659Z,0.50
2023-04-19T15:49:54.263Z,0.70
2023-04-19T15:52:23.134Z,0.60
2023-04-19T15:54:52.219Z,0.60
2023-04-19T15:57:21.854Z,0.50
2023-04-19T15:59:50.991Z,0.70
2023-04-19T16:02:19.746Z,0.30
2023-04-19T16:04:51.394Z,0.28
2023-04-19T16:07:21.805Z,0.60
2023-04-19T16:09:52.598Z,0.45
2023-04-19T16:12:21.174Z,0.55
2023-04-19T16:14:49.498Z,0.52
2023-04-19T16:17:18.095Z,0.30
2023-04-19T16:19:46.853Z,0.68
2023-04-19T16:22:16.895Z,0.27
2023-04-19T16:24:46.440Z,0.40
2023-04-19T16:27:14.826Z,0.73
2023-04-19T16:29:43.893Z,0.88
2023-04-19T16:32:13.544Z,0.38
2023-04-19T16:34:41.990Z,0.75
2023-04-19T16:37:10.784Z,0.60
2023-04-19T16:39:40.569Z,0.90
2023-04-19T16:44:37.146Z,0.60
2023-04-19T16:47:05.697Z,0.65
2023-04-19T16:49:33.983Z,0.55
2023-04-19T16:52:02.192Z,0.63
2023-04-19T16:54:30.507Z,0.60
2023-04-19T16:57:02.907Z,0.52
2023-04-19T16:59:32.870Z,0.32
2023-04-19T17:02:02.937Z,0.50
2023-04-19T17:04:32.439Z,0.70
2023-04-19T17:07:01.336Z,0.80
2023-04-19T17:09:33.457Z,0.75
2023-04-19T17:12:04.083Z,0.88
2023-04-19T17:14:37.032Z,0.50
2023-04-19T17:17:05.427Z,1.25
2023-04-19T17:19:35.231Z,1.45
2023-04-19T17:22:06.988Z,1.40
2023-04-19T17:24:35.702Z,1.25
2023-04-19T17:27:05.587Z,0.57
2023-04-19T17:29:33.730Z,0.68
2023-04-19T17:32:02.421Z,0.65
2023-04-19T17:34:36.019Z,0.77
2023-04-19T17:37:05.149Z,0.70
2023-04-19T17:39:34.048Z,0.60
2023-04-19T17:42:02.228Z,0.70
2023-04-19T17:44:31.763Z,0.68
2023-04-19T17:47:00.627Z,0.60
2023-04-19T17:49:29.600Z,0.47
2023-04-19T17:51:58.138Z,0.50
2023-04-19T17:54:29.141Z,0.50
2023-04-19T17:56:59.323Z,0.50
2023-04-19T17:59:27.753Z,0.60
2023-04-19T18:01:57.723Z,0.65
2023-04-19T18:04:26.782Z,0.82
2023-04-19T18:06:54.998Z,1.02
2023-04-19T18:09:23.519Z,0.55
2023-04-19T18:11:51.623Z,0.68
2023-04-19T18:14:21.075Z,0.68
2023-04-19T18:16:49.573Z,0.40
2023-04-19T18:19:20.154Z,0.75
2023-04-19T18:21:48.833Z,0.40
2023-04-19T18:24:17.072Z,0.90
2023-04-19T18:26:45.397Z,1.48
2023-04-19T18:29:15.940Z,1.25
2023-04-19T18:31:45.669Z,0.90
2023-04-19T18:34:14.783Z,0.70
2023-04-19T18:36:44.444Z,0.82
2023-04-19T18:41:41.735Z,0.95
2023-04-19T18:44:30.021Z,0.55
2023-04-19T18:46:59.168Z,0.70
2023-04-19T18:49:27.482Z,0.73
2023-04-19T18:51:57.359Z,0.55
2023-04-19T18:54:25.769Z,1.00
2023-04-19T18:59:26.072Z,0.90
2023-04-19T19:02:00.927Z,0.73
2023-04-19T19:04:48.188Z,0.90
2023-04-19T19:07:34.838Z,0.90
2023-04-19T19:10:18.194Z,0.68
2023-04-19T19:12:52.315Z,0.80
2023-04-19T19:15:26.683Z,0.60
2023-04-19T19:17:57.755Z,0.60
2023-04-19T19:20:40.084Z,0.63
2023-04-19T19:23:12.172Z,0.70
2023-04-19T19:25:42.546Z,0.90
2023-04-19T19:28:13.369Z,0.80
2023-04-19T19:30:45.120Z,0.80
2023-04-19T19:33:13.863Z,0.90
2023-04-19T19:35:49.452Z,0.85
2023-04-19T19:38:32.431Z,0.80
2023-04-19T19:43:45.490Z,1.13
2023-04-19T19:46:15.434Z,1.08
2023-04-19T19:48:43.773Z,0.80
2023-04-19T19:53:47.887Z,2.75
2023-04-19T19:56:21.912Z,3.40
2023-04-19T19:58:52.680Z,2.80
2023-04-19T20:01:32.743Z,2.35
2023-04-19T20:04:01.532Z,3.28
2023-04-19T20:09:05.530Z,3.35
2023-04-19T20:11:39.395Z,4.30
2023-04-19T20:14:07.732Z,4.45
2023-04-19T20:16:39.388Z,2.92
2023-04-19T20:19:10.704Z,1.75
2023-04-19T20:21:57.102Z,1.42
2023-04-19T20:24:28.063Z,1.27
2023-04-19T20:26:57.498Z,1.38
2023-04-19T20:29:25.976Z,1.67
2023-04-19T20:31:54.541Z,1.27
2023-04-19T20:34:25.275Z,0.82
2023-04-19T20:36:53.757Z,1.20
2023-04-19T20:39:23.332Z,0.88
2023-04-19T20:41:54.244Z,0.77
2023-04-19T20:44:23.143Z,0.90
2023-04-19T20:46:52.048Z,0.80
2023-04-19T20:49:20.416Z,1.10
2023-04-19T20:51:49.844Z,0.50
2023-04-19T20:54:18.556Z,0.65
2023-04-19T20:56:48.913Z,1.23
2023-04-19T20:59:19.310Z,1.10
2023-04-19T21:01:47.623Z,0.50
2023-04-19T21:04:18.341Z,0.60
2023-04-19T21:06:47.512Z,0.50
2023-04-19T21:09:15.912Z,0.93
2023-04-19T21:11:44.724Z,1.15
2023-04-19T21:14:15.693Z,0.75
2023-04-19T21:16:46.161Z,0.80
2023-04-19T21:19:14.752Z,0.82
2023-04-19T21:21:43.933Z,0.95
2023-04-19T21:24:12.314Z,1.00
2023-04-19T21:26:40.694Z,1.05
2023-04-19T21:29:09.152Z,0.75
2023-04-19T21:31:37.773Z,1.45
2023-04-19T21:34:08.413Z,0.90
2023-04-19T21:36:38.034Z,0.60
2023-04-19T21:39:06.287Z,0.95
2023-04-19T21:41:34.719Z,0.80
2023-04-19T21:44:03.509Z,1.10
2023-04-19T21:46:32.081Z,0.77
2023-04-19T21:49:00.325Z,1.13
2023-04-19T21:51:31.534Z,0.80
2023-04-19T21:54:00.369Z,1.13
2023-04-19T21:56:28.649Z,0.70
2023-04-19T21:58:57.240Z,1.15
2023-04-19T22:01:27.712Z,0.90
2023-04-19T22:03:57.312Z,1.45
2023-04-19T22:08:59.225Z,0.85
2023-04-19T22:11:28.947Z,0.82
2023-04-19T22:13:57.713Z,0.80
2023-04-19T22:16:28.029Z,0.93
2023-04-19T22:18:56.545Z,0.82
2023-04-19T22:21:25.578Z,1.15
2023-04-19T22:23:54.585Z,1.10
2023-04-19T22:26:26.217Z,0.70
2023-04-19T22:28:55.222Z,0.80
2023-04-19T22:31:23.539Z,0.87
2023-04-19T22:33:51.838Z,1.10
2023-04-19T22:36:20.856Z,0.88
2023-04-19T22:38:49.515Z,1.10
2023-04-19T22:41:18.092Z,0.80
2023-04-19T22:43:48.111Z,1.65
2023-04-19T22:46:19.160Z,0.95
2023-04-19T22:48:48.365Z,0.90
2023-04-19T22:51:18.143Z,0.57
2023-04-19T22:56:28.720Z,0.98
2023-04-19T22:59:01.606Z,0.80
2023-04-19T23:01:30.104Z,1.10
2023-04-19T23:03:58.505Z,0.70
2023-04-19T23:06:28.988Z,0.85
2023-04-19T23:08:57.618Z,1.00
2023-04-19T23:11:29.373Z,1.45
2023-04-19T23:13:57.638Z,1.40
2023-04-19T23:16:28.713Z,0.90
2023-04-19T23:18:57.003Z,1.30
2023-04-19T23:21:25.193Z,0.90
2023-04-19T23:23:53.456Z,1.15
2023-04-19T23:26:22.078Z,1.08
2023-04-19T23:28:50.459Z,1.02
2023-04-19T23:31:18.663Z,1.40
2023-04-19T23:33:51.405Z,0.85
2023-04-19T23:36:19.712Z,1.02
2023-04-19T23:38:48.149Z,1.02
2023-04-19T23:41:16.994Z,1.10
2023-04-19T23:43:50.047Z,1.27
2023-04-19T23:46:18.221Z,1.10
2023-04-19T23:48:47.636Z,0.93
2023-04-19T23:51:17.434Z,1.05
2023-04-19T23:56:13.655Z,1.17
2023-04-19T23:58:42.086Z,0.98
